sensor_id;sensor_type;location;lat;lon;timestamp;pressure;altitude;pressure_sealevel;temperature;humidity
50282;BME280;36176;51.506;10.272;2024-01-15T00:01:04;97689.09;;;0.47;98.10
50282;BME280;36176;51.506;10.272;2024-01-15T00:03:32;97693.56;;;0.44;98.81
50282;BME280;36176;51.506;10.272;2024-01-15T00:05:59;97693.81;;;0.36;99.44
50282;BME280;36176;51.506;10.272;2024-01-15T00:08:26;97686.91;;;0.35;99.58
50282;BME280;36176;51.506;10.272;2024-01-15T00:10:54;97686.91;;;0.35;100.00
50282;BME280;36176;51.506;10.272;2024-01-15T00:13:21;97674.88;;;0.31;99.58
50282;BME280;36176;51.506;10.272;2024-01-15T00:15:48;97664.47;;;0.31;99.00
50282;BME280;36176;51.506;10.272;2024-01-15T00:18:15;97670.47;;;0.33;99.60
50282;BME280;36176;51.506;10.272;2024-01-15T00:20:43;97677.41;;;0.34;98.69
50282;BME280;36176;51.506;10.272;2024-01-15T00:23:10;97663.50;;;0.33;98.60
50282;BME280;36176;51.506;10.272;2024-01-15T00:25:37;97664.41;;;0.32;97.54
50282;BME280;36176;51.506;10.272;2024-01-15T00:28:07;97656.44;;;0.37;98.40
50282;BME280;36176;51.506;10.272;2024-01-15T00:30:34;97646.03;;;0.37;98.18
50282;BME280;36176;51.506;10.272;2024-01-15T00:33:01;97653.88;;;0.35;98.60
50282;BME280;36176;51.506;10.272;2024-01-15T00:35:28;97653.03;;;0.35;99.26
50282;BME280;36176;51.506;10.272;2024-01-15T00:37:56;97655.59;;;0.36;99.95
50282;BME280;36176;51.506;10.272;2024-01-15T00:40:23;97654.13;;;0.29;100.00
50282;BME280;36176;51.506;10.272;2024-01-15T00:42:50;97657.84;;;0.22;100.00
50282;BME280;36176;51.506;10.272;2024-01-15T00:45:18;97659.75;;;0.17;100.00
50282;BME280;36176;51.506;10.272;2024-01-15T00:47:45;97667.72;;;0.12;100.00
50282;BME280;36176;51.506;10.272;2024-01-15T00:50:12;97667.75;;;0.11;100.00
50282;BME280;36176;51.506;10.272;2024-01-15T00:52:40;97660.00;;;0.09;100.00
50282;BME280;36176;51.506;10.272;2024-01-15T00:55:07;97655.81;;;0.05;100.00
50282;BME280;36176;51.506;10.272;2024-01-15T00:57:34;97654.22;;;0.01;100.00
50282;BME280;36176;51.506;10.272;2024-01-15T01:00:02;97650.66;;;0.04;100.00
50282;BME280;36176;51.506;10.272;2024-01-15T01:02:32;97635.06;;;0.02;100.00
50282;BME280;36176;51.506;10.272;2024-01-15T01:05:00;97643.78;;;0.01;100.00
50282;BME280;36176;51.506;10.272;2024-01-15T01:07:28;97648.09;;;0.02;100.00
50282;BME280;36176;51.506;10.272;2024-01-15T01:09:55;97649.84;;;0.02;100.00
50282;BME280;36176;51.506;10.272;2024-01-15T01:12:22;97657.63;;;0.03;100.00
50282;BME280;36176;51.506;10.272;2024-01-15T01:14:49;97656.78;;;0.03;100.00
50282;BME280;36176;51.506;10.272;2024-01-15T01:17:16;97653.38;;;0.01;100.00
50282;BME280;36176;51.506;10.272;2024-01-15T01:19:43;97649.84;;;0.02;100.00
50282;BME280;36176;51.506;10.272;2024-01-15T01:22:11;97647.34;;;-0.02;100.00
50282;BME280;36176;51.506;10.272;2024-01-15T01:24:38;97653.38;;;0.01;100.00
50282;BME280;36176;51.506;10.272;2024-01-15T01:27:05;97652.59;;;-0.03;100.00
50282;BME280;36176;51.506;10.272;2024-01-15T01:29:33;97653.44;;;-0.03;100.00
50282;BME280;36176;51.506;10.272;2024-01-15T01:32:00;97650.00;;;-0.03;100.00
50282;BME280;36176;51.506;10.272;2024-01-15T01:34:27;97652.41;;;0.03;100.00
50282;BME280;36176;51.506;10.272;2024-01-15T01:36:57;97641.06;;;0.04;100.00
50282;BME280;36176;51.506;10.272;2024-01-15T01:39:24;97644.59;;;0.03;100.00
50282;BME280;36176;51.506;10.272;2024-01-15T01:41:51;97646.28;;;0.04;100.00
50282;BME280;36176;51.506;10.272;2024-01-15T01:44:18;97647.13;;;0.05;100.00
50282;BME280;36176;51.506;10.272;2024-01-15T01:46:45;97644.59;;;0.03;100.00
50282;BME280;36176;51.506;10.272;2024-01-15T01:49:12;97647.19;;;0.03;100.00
50282;BME280;36176;51.506;10.272;2024-01-15T01:51:39;97638.53;;;0.03;100.00
50282;BME280;36176;51.506;10.272;2024-01-15T01:54:08;97638.63;;;-0.01;100.00
50282;BME280;36176;51.506;10.272;2024-01-15T01:56:35;97645.63;;;-0.03;100.00
50282;BME280;36176;51.506;10.272;2024-01-15T01:59:03;97645.59;;;-0.01;100.00
50282;BME280;36176;51.506;10.272;2024-01-15T02:01:31;97642.09;;;0.00;100.00
50282;BME280;36176;51.506;10.272;2024-01-15T02:04:00;97640.44;;;-0.03;100.00
50282;BME280;36176;51.506;10.272;2024-01-15T02:06:28;97639.50;;;0.00;100.00
50282;BME280;36176;51.506;10.272;2024-01-15T02:08:55;97642.72;;;0.07;100.00
50282;BME280;36176;51.506;10.272;2024-01-15T02:11:23;97641.84;;;0.08;100.00
50282;BME280;36176;51.506;10.272;2024-01-15T02:13:50;97650.50;;;0.08;100.00
50282;BME280;36176;51.506;10.272;2024-01-15T02:16:18;97657.34;;;0.11;100.00
50282;BME280;36176;51.506;10.272;2024-01-15T02:18:46;97660.69;;;0.14;100.00
50282;BME280;36176;51.506;10.272;2024-01-15T02:21:13;97647.72;;;0.13;100.00
50282;BME280;36176;51.506;10.272;2024-01-15T02:23:40;97661.44;;;0.18;100.00
50282;BME280;36176;51.506;10.272;2024-01-15T02:26:08;97657.03;;;0.20;100.00
50282;BME280;36176;51.506;10.272;2024-01-15T02:28:36;97657.06;;;0.18;100.00
50282;BME280;36176;51.506;10.272;2024-01-15T02:31:03;97661.41;;;0.19;100.00
50282;BME280;36176;51.506;10.272;2024-01-15T02:33:30;97653.50;;;0.21;100.00
50282;BME280;36176;51.506;10.272;2024-01-15T02:35:58;97653.59;;;0.19;100.00
50282;BME280;36176;51.506;10.272;2024-01-15T02:38:25;97642.28;;;0.19;100.00
50282;BME280;36176;51.506;10.272;2024-01-15T02:40:52;97654.75;;;0.11;100.00
50282;BME280;36176;51.506;10.272;2024-01-15T02:43:20;97655.66;;;0.10;99.43
50282;BME280;36176;51.506;10.272;2024-01-15T02:45:47;97661.91;;;0.04;99.36
50282;BME280;36176;51.506;10.272;2024-01-15T02:48:14;97666.47;;;-0.03;99.43
50282;BME280;36176;51.506;10.272;2024-01-15T02:50:49;97655.97;;;0.01;99.93
50282;BME280;36176;51.506;10.272;2024-01-15T02:53:21;97657.53;;;0.05;99.67
50282;BME280;36176;51.506;10.272;2024-01-15T02:55:59;97654.84;;;0.08;99.60
50282;BME280;36176;51.506;10.272;2024-01-15T02:58:26;97648.78;;;0.07;99.15
50282;BME280;36176;51.506;10.272;2024-01-15T03:00:54;97647.03;;;0.08;99.12
50282;BME280;36176;51.506;10.272;2024-01-15T03:03:22;97653.94;;;0.09;98.28
50282;BME280;36176;51.506;10.272;2024-01-15T03:05:49;97652.09;;;0.12;97.09
50282;BME280;36176;51.506;10.272;2024-01-15T03:08:16;97653.91;;;0.10;96.33
50282;BME280;36176;51.506;10.272;2024-01-15T03:10:44;97658.34;;;0.07;95.83
50282;BME280;36176;51.506;10.272;2024-01-15T03:13:11;97658.47;;;0.04;95.81
50282;BME280;36176;51.506;10.272;2024-01-15T03:15:39;97660.16;;;0.05;96.65
50282;BME280;36176;51.506;10.272;2024-01-15T03:18:06;97667.88;;;0.08;95.91
50282;BME280;36176;51.506;10.272;2024-01-15T03:20:33;97666.81;;;0.13;95.05
50282;BME280;36176;51.506;10.272;2024-01-15T03:23:00;97666.44;;;0.24;94.61
50282;BME280;36176;51.506;10.272;2024-01-15T03:25:28;97668.03;;;0.28;93.22
50282;BME280;36176;51.506;10.272;2024-01-15T03:27:55;97660.22;;;0.28;91.91
50282;BME280;36176;51.506;10.272;2024-01-15T03:30:22;97654.69;;;0.37;92.03
50282;BME280;36176;51.506;10.272;2024-01-15T03:32:49;97654.53;;;0.42;89.63
50282;BME280;36176;51.506;10.272;2024-01-15T03:35:17;97650.06;;;0.46;90.06
50282;BME280;36176;51.506;10.272;2024-01-15T03:37:44;97663.81;;;0.49;89.64
50282;BME280;36176;51.506;10.272;2024-01-15T03:40:11;97656.75;;;0.53;88.96
50282;BME280;36176;51.506;10.272;2024-01-15T03:42:39;97647.06;;;0.56;88.77
50282;BME280;36176;51.506;10.272;2024-01-15T03:45:06;97654.09;;;0.54;89.43
50282;BME280;36176;51.506;10.272;2024-01-15T03:47:33;97666.94;;;0.59;89.33
50282;BME280;36176;51.506;10.272;2024-01-15T03:50:01;97660.09;;;0.56;89.81
50282;BME280;36176;51.506;10.272;2024-01-15T03:52:28;97653.97;;;0.57;90.78
50282;BME280;36176;51.506;10.272;2024-01-15T03:54:55;97656.66;;;0.56;90.64
50282;BME280;36176;51.506;10.272;2024-01-15T03:57:22;97656.75;;;0.53;90.78
50282;BME280;36176;51.506;10.272;2024-01-15T03:59:52;97656.81;;;0.51;91.07
50282;BME280;36176;51.506;10.272;2024-01-15T04:02:19;97639.44;;;0.50;91.08
50282;BME280;36176;51.506;10.272;2024-01-15T04:04:47;97647.28;;;0.50;91.46
50282;BME280;36176;51.506;10.272;2024-01-15T04:07:14;97631.84;;;0.46;91.07
50282;BME280;36176;51.506;10.272;2024-01-15T04:09:41;97616.13;;;0.47;91.26
50282;BME280;36176;51.506;10.272;2024-01-15T04:12:09;97623.06;;;0.48;91.61
50282;BME280;36176;51.506;10.272;2024-01-15T04:14:36;97621.28;;;0.49;91.51
50282;BME280;36176;51.506;10.272;2024-01-15T04:17:03;97615.28;;;0.47;91.36
50282;BME280;36176;51.506;10.272;2024-01-15T04:19:30;97624.09;;;0.42;91.18
50282;BME280;36176;51.506;10.272;2024-01-15T04:21:58;97625.06;;;0.40;91.40
50282;BME280;36176;51.506;10.272;2024-01-15T04:24:25;97625.03;;;0.41;92.05
50282;BME280;36176;51.506;10.272;2024-01-15T04:26:52;97630.91;;;0.47;91.38
50282;BME280;36176;51.506;10.272;2024-01-15T04:29:22;97629.16;;;0.47;91.53
50282;BME280;36176;51.506;10.272;2024-01-15T04:31:49;97626.44;;;0.50;90.87
50282;BME280;36176;51.506;10.272;2024-01-15T04:34:16;97623.91;;;0.49;91.27
50282;BME280;36176;51.506;10.272;2024-01-15T04:36:43;97628.19;;;0.50;90.67
50282;BME280;36176;51.506;10.272;2024-01-15T04:39:10;97636.84;;;0.50;90.95
50282;BME280;36176;51.506;10.272;2024-01-15T04:41:37;97634.25;;;0.50;90.82
50282;BME280;36176;51.506;10.272;2024-01-15T04:44:04;97620.44;;;0.48;91.25
50282;BME280;36176;51.506;10.272;2024-01-15T04:46:32;97634.31;;;0.49;91.38
50282;BME280;36176;51.506;10.272;2024-01-15T04:48:59;97616.97;;;0.48;90.36
50282;BME280;36176;51.506;10.272;2024-01-15T04:51:26;97618.81;;;0.46;90.37
50282;BME280;36176;51.506;10.272;2024-01-15T04:53:53;97612.72;;;0.45;90.92
50282;BME280;36176;51.506;10.272;2024-01-15T04:56:20;97614.44;;;0.46;90.47
50282;BME280;36176;51.506;10.272;2024-01-15T04:58:47;97609.28;;;0.45;90.07
50282;BME280;36176;51.506;10.272;2024-01-15T05:01:16;97607.41;;;0.48;90.28
50282;BME280;36176;51.506;10.272;2024-01-15T05:03:43;97596.13;;;0.48;90.53
50282;BME280;36176;51.506;10.272;2024-01-15T05:06:10;97593.63;;;0.45;90.74
50282;BME280;36176;51.506;10.272;2024-01-15T05:08:37;97599.75;;;0.44;90.88
50282;BME280;36176;51.506;10.272;2024-01-15T05:11:04;97596.25;;;0.45;90.85
50282;BME280;36176;51.506;10.272;2024-01-15T05:13:31;97589.22;;;0.47;90.11
50282;BME280;36176;51.506;10.272;2024-01-15T05:15:59;97588.25;;;0.49;90.79
50282;BME280;36176;51.506;10.272;2024-01-15T05:18:26;97595.22;;;0.49;89.87
50282;BME280;36176;51.506;10.272;2024-01-15T05:20:54;97586.56;;;0.48;91.36
50282;BME280;36176;51.506;10.272;2024-01-15T05:23:21;97599.75;;;0.44;92.18
50282;BME280;36176;51.506;10.272;2024-01-15T05:25:49;97596.25;;;0.45;92.41
50282;BME280;36176;51.506;10.272;2024-01-15T05:28:16;97593.69;;;0.43;92.67
50282;BME280;36176;51.506;10.272;2024-01-15T05:30:43;97586.06;;;0.38;92.65
50282;BME280;36176;51.506;10.272;2024-01-15T05:33:11;97582.59;;;0.38;93.11
50282;BME280;36176;51.506;10.272;2024-01-15T05:35:38;97592.03;;;0.40;94.12
50282;BME280;36176;51.506;10.272;2024-01-15T05:38:06;97590.47;;;0.36;94.07
50282;BME280;36176;51.506;10.272;2024-01-15T05:40:34;97589.66;;;0.34;93.63
50282;BME280;36176;51.506;10.272;2024-01-15T05:43:01;97580.94;;;0.35;93.31
50282;BME280;36176;51.506;10.272;2024-01-15T05:45:30;97578.44;;;0.32;93.70
50282;BME280;36176;51.506;10.272;2024-01-15T05:47:57;97581.38;;;0.23;94.80
50282;BME280;36176;51.506;10.272;2024-01-15T05:50:25;97585.13;;;0.16;95.88
50282;BME280;36176;51.506;10.272;2024-01-15T05:52:52;97591.25;;;0.15;96.78
50282;BME280;36176;51.506;10.272;2024-01-15T05:55:19;97579.91;;;0.16;97.88
50282;BME280;36176;51.506;10.272;2024-01-15T05:57:46;97580.97;;;0.10;97.51
50282;BME280;36176;51.506;10.272;2024-01-15T06:00:14;97587.16;;;0.08;97.91
50282;BME280;36176;51.506;10.272;2024-01-15T06:02:44;97575.00;;;0.07;98.27
50282;BME280;36176;51.506;10.272;2024-01-15T06:05:12;97574.06;;;0.09;98.55
50282;BME280;36176;51.506;10.272;2024-01-15T06:07:39;97578.25;;;0.13;98.38
50282;BME280;36176;51.506;10.272;2024-01-15T06:10:07;97582.75;;;0.10;98.51
50282;BME280;36176;51.506;10.272;2024-01-15T06:12:34;97586.22;;;0.09;99.64
50282;BME280;36176;51.506;10.272;2024-01-15T06:15:02;97593.09;;;0.11;99.65
50282;BME280;36176;51.506;10.272;2024-01-15T06:17:29;97595.75;;;0.10;99.69
50282;BME280;36176;51.506;10.272;2024-01-15T06:19:56;97598.38;;;0.10;100.00
50282;BME280;36176;51.506;10.272;2024-01-15T06:22:23;97592.44;;;0.05;100.00
50282;BME280;36176;51.506;10.272;2024-01-15T06:24:50;97598.44;;;0.07;100.00
50282;BME280;36176;51.506;10.272;2024-01-15T06:27:18;97583.75;;;0.06;100.00
50282;BME280;36176;51.506;10.272;2024-01-15T06:29:52;97579.38;;;0.06;99.74
50282;BME280;36176;51.506;10.272;2024-01-15T06:32:19;97579.25;;;0.09;99.91
50282;BME280;36176;51.506;10.272;2024-01-15T06:34:46;97595.75;;;0.10;99.71
50282;BME280;36176;51.506;10.272;2024-01-15T06:37:16;97594.81;;;0.12;99.37
50282;BME280;36176;51.506;10.272;2024-01-15T06:39:43;97581.78;;;0.12;98.65
50282;BME280;36176;51.506;10.272;2024-01-15T06:42:11;97576.56;;;0.12;98.92
50282;BME280;36176;51.506;10.272;2024-01-15T06:44:38;97590.44;;;0.13;98.46
50282;BME280;36176;51.506;10.272;2024-01-15T06:47:05;97593.03;;;0.13;97.87
50282;BME280;36176;51.506;10.272;2024-01-15T06:49:32;97583.44;;;0.15;97.64
50282;BME280;36176;51.506;10.272;2024-01-15T06:51:59;97575.63;;;0.15;97.99
50282;BME280;36176;51.506;10.272;2024-01-15T06:54:27;97590.63;;;0.07;98.39
50282;BME280;36176;51.506;10.272;2024-01-15T06:56:54;97589.75;;;0.08;98.64
50282;BME280;36176;51.506;10.272;2024-01-15T06:59:21;97588.94;;;0.06;99.08
50282;BME280;36176;51.506;10.272;2024-01-15T07:01:48;97593.47;;;0.01;98.98
50282;BME280;36176;51.506;10.272;2024-01-15T07:04:16;97591.72;;;0.01;99.55
50282;BME280;36176;51.506;10.272;2024-01-15T07:06:43;97592.44;;;0.05;99.53
50282;BME280;36176;51.506;10.272;2024-01-15T07:09:11;97589.84;;;0.05;99.69
50282;BME280;36176;51.506;10.272;2024-01-15T07:11:43;97598.56;;;0.04;99.11
50282;BME280;36176;51.506;10.272;2024-01-15T07:14:10;97607.22;;;0.04;99.46
50282;BME280;36176;51.506;10.272;2024-01-15T07:16:38;97591.72;;;0.01;98.92
50282;BME280;36176;51.506;10.272;2024-01-15T07:19:06;97590.03;;;0.00;99.18
50282;BME280;36176;51.506;10.272;2024-01-15T07:21:33;97592.56;;;0.02;99.07
50282;BME280;36176;51.506;10.272;2024-01-15T07:24:01;97594.19;;;0.04;99.64
50282;BME280;36176;51.506;10.272;2024-01-15T07:26:30;97601.28;;;0.01;100.00
50282;BME280;36176;51.506;10.272;2024-01-15T07:28:58;97604.84;;;-0.02;100.00
50282;BME280;36176;51.506;10.272;2024-01-15T07:31:26;97616.22;;;-0.05;100.00
50282;BME280;36176;51.506;10.272;2024-01-15T07:33:55;97613.69;;;-0.08;100.00
50282;BME280;36176;51.506;10.272;2024-01-15T07:36:22;97620.63;;;-0.07;100.00
50282;BME280;36176;51.506;10.272;2024-01-15T07:38:49;97624.13;;;-0.08;100.00
50282;BME280;36176;51.506;10.272;2024-01-15T07:41:17;97616.25;;;-0.06;100.00
50282;BME280;36176;51.506;10.272;2024-01-15T07:43:44;97608.41;;;-0.05;99.94
50282;BME280;36176;51.506;10.272;2024-01-15T07:46:11;97616.84;;;0.02;99.93
50282;BME280;36176;51.506;10.272;2024-01-15T07:48:39;97611.53;;;0.05;99.64
50282;BME280;36176;51.506;10.272;2024-01-15T07:51:06;97620.19;;;0.06;100.00
50282;BME280;36176;51.506;10.272;2024-01-15T07:53:33;97610.59;;;0.08;100.00
50282;BME280;36176;51.506;10.272;2024-01-15T07:56:00;97618.41;;;0.08;100.00
50282;BME280;36176;51.506;10.272;2024-01-15T07:58:27;97622.81;;;0.06;100.00
50282;BME280;36176;51.506;10.272;2024-01-15T08:00:55;97623.69;;;0.05;100.00
50282;BME280;36176;51.506;10.272;2024-01-15T08:03:23;97621.19;;;0.02;100.00
50282;BME280;36176;51.506;10.272;2024-01-15T08:05:50;97633.53;;;-0.04;100.00
50282;BME280;36176;51.506;10.272;2024-01-15T08:08:21;97627.53;;;-0.06;100.00
50282;BME280;36176;51.506;10.272;2024-01-15T08:10:49;97626.78;;;-0.09;100.00
50282;BME280;36176;51.506;10.272;2024-01-15T08:13:26;97627.59;;;-0.07;100.00
50282;BME280;36176;51.506;10.272;2024-01-15T08:15:53;97626.63;;;-0.05;100.00
50282;BME280;36176;51.506;10.272;2024-01-15T08:18:22;97621.03;;;0.06;100.00
50282;BME280;36176;51.506;10.272;2024-01-15T08:20:51;97623.38;;;0.14;100.00
50282;BME280;36176;51.506;10.272;2024-01-15T08:23:19;97624.78;;;0.24;100.00
50282;BME280;36176;51.506;10.272;2024-01-15T08:25:47;97616.78;;;0.29;100.00
50282;BME280;36176;51.506;10.272;2024-01-15T08:28:14;97617.72;;;0.26;100.00
50282;BME280;36176;51.506;10.272;2024-01-15T08:30:41;97613.41;;;0.27;100.00
50282;BME280;36176;51.506;10.272;2024-01-15T08:33:09;97615.09;;;0.28;100.00
50282;BME280;36176;51.506;10.272;2024-01-15T08:35:47;97607.44;;;0.23;100.00
50282;BME280;36176;51.506;10.272;2024-01-15T08:38:14;97604.81;;;0.23;100.00
50282;BME280;36176;51.506;10.272;2024-01-15T08:40:42;97603.19;;;0.20;100.00
50282;BME280;36176;51.506;10.272;2024-01-15T08:43:09;97604.25;;;0.15;100.00
50282;BME280;36176;51.506;10.272;2024-01-15T08:45:36;97598.94;;;0.18;100.00
50282;BME280;36176;51.506;10.272;2024-01-15T08:48:05;97602.47;;;0.17;100.00
50282;BME280;36176;51.506;10.272;2024-01-15T08:50:32;97611.13;;;0.17;100.00
50282;BME280;36176;51.506;10.272;2024-01-15T08:53:05;97610.34;;;0.14;100.00
50282;BME280;36176;51.506;10.272;2024-01-15T08:55:32;97607.97;;;0.08;100.00
50282;BME280;36176;51.506;10.272;2024-01-15T08:58:04;97611.47;;;0.07;100.00
50282;BME280;36176;51.506;10.272;2024-01-15T09:00:32;97615.00;;;0.06;100.00
50282;BME280;36176;51.506;10.272;2024-01-15T09:03:00;97619.28;;;0.07;100.00
50282;BME280;36176;51.506;10.272;2024-01-15T09:05:28;97626.09;;;0.11;100.00
50282;BME280;36176;51.506;10.272;2024-01-15T09:07:56;97626.59;;;0.22;100.00
50282;BME280;36176;51.506;10.272;2024-01-15T09:10:23;97625.22;;;0.35;100.00
50282;BME280;36176;51.506;10.272;2024-01-15T09:12:53;97619.81;;;0.41;100.00
50282;BME280;36176;51.506;10.272;2024-01-15T09:15:35;97617.41;;;0.35;100.00
50282;BME280;36176;51.506;10.272;2024-01-15T09:18:04;97617.41;;;0.35;100.00
50282;BME280;36176;51.506;10.272;2024-01-15T09:20:36;97621.09;;;0.30;100.00
50282;BME280;36176;51.506;10.272;2024-01-15T09:23:03;97619.28;;;0.32;100.00
50282;BME280;36176;51.506;10.272;2024-01-15T09:25:33;97620.94;;;0.34;100.00
50282;BME280;36176;51.506;10.272;2024-01-15T09:28:00;97627.50;;;0.45;100.00
50282;BME280;36176;51.506;10.272;2024-01-15T09:34:45;97628.31;;;0.47;100.00
50282;BME280;36176;51.506;10.272;2024-01-15T09:37:23;97626.53;;;0.47;100.00
50282;BME280;36176;51.506;10.272;2024-01-15T09:40:15;97618.56;;;0.52;100.00
50282;BME280;36176;51.506;10.272;2024-01-15T09:42:43;97622.59;;;0.60;100.00
50282;BME280;36176;51.506;10.272;2024-01-15T09:45:11;97628.44;;;0.67;100.00
50282;BME280;36176;51.506;10.272;2024-01-15T09:47:40;97625.31;;;0.81;100.00
50282;BME280;36176;51.506;10.272;2024-01-15T09:50:13;97629.69;;;0.80;100.00
50282;BME280;36176;51.506;10.272;2024-01-15T09:52:41;97627.75;;;0.85;100.00
50282;BME280;36176;51.506;10.272;2024-01-15T09:55:09;97633.88;;;0.84;100.00
50282;BME280;36176;51.506;10.272;2024-01-15T09:57:37;97632.41;;;0.77;100.00
50282;BME280;36176;51.506;10.272;2024-01-15T10:00:07;97631.31;;;0.83;100.00
50282;BME280;36176;51.506;10.272;2024-01-15T10:02:35;97630.31;;;0.87;100.00
50282;BME280;36176;51.506;10.272;2024-01-15T10:05:03;97638.78;;;0.92;100.00
50282;BME280;36176;51.506;10.272;2024-01-15T10:07:34;97637.81;;;0.95;100.00
50282;BME280;36176;51.506;10.272;2024-01-15T10:10:02;97625.63;;;0.95;100.00
50282;BME280;36176;51.506;10.272;2024-01-15T10:12:29;97628.38;;;0.92;100.00
50282;BME280;36176;51.506;10.272;2024-01-15T10:14:57;97628.31;;;0.94;100.00
50282;BME280;36176;51.506;10.272;2024-01-15T10:17:24;97630.13;;;0.92;100.00
50282;BME280;36176;51.506;10.272;2024-01-15T10:19:52;97629.00;;;0.99;100.00
50282;BME280;36176;51.506;10.272;2024-01-15T10:22:19;97635.75;;;1.03;100.00
50282;BME280;36176;51.506;10.272;2024-01-15T10:24:46;97630.34;;;1.09;100.00
50282;BME280;36176;51.506;10.272;2024-01-15T10:27:14;97623.16;;;1.14;100.00
50282;BME280;36176;51.506;10.272;2024-01-15T10:29:41;97617.97;;;1.14;100.00
50282;BME280;36176;51.506;10.272;2024-01-15T10:32:09;97623.16;;;1.14;100.00
50282;BME280;36176;51.506;10.272;2024-01-15T10:34:40;97616.97;;;1.17;100.00
50282;BME280;36176;51.506;10.272;2024-01-15T10:37:09;97617.81;;;1.17;100.00
50282;BME280;36176;51.506;10.272;2024-01-15T10:39:38;97609.91;;;1.20;100.00
50282;BME280;36176;51.506;10.272;2024-01-15T10:42:06;97604.59;;;1.22;100.00
50282;BME280;36176;51.506;10.272;2024-01-15T10:44:35;97597.34;;;1.30;99.84
50282;BME280;36176;51.506;10.272;2024-01-15T10:47:03;97600.91;;;1.49;99.70
50282;BME280;36176;51.506;10.272;2024-01-15T10:49:31;97597.66;;;1.65;98.74
50282;BME280;36176;51.506;10.272;2024-01-15T10:52:02;97606.66;;;1.80;98.33
50282;BME280;36176;51.506;10.272;2024-01-15T10:54:30;97595.13;;;1.84;97.40
50282;BME280;36176;51.506;10.272;2024-01-15T10:56:57;97591.47;;;1.67;97.13
50282;BME280;36176;51.506;10.272;2024-01-15T10:59:24;97587.25;;;1.43;97.22
50282;BME280;36176;51.506;10.272;2024-01-15T11:01:52;97589.50;;;1.30;97.91
50282;BME280;36176;51.506;10.272;2024-01-15T11:04:22;97590.97;;;1.15;99.76
50282;BME280;36176;51.506;10.272;2024-01-15T11:06:53;97588.59;;;1.09;100.00
50282;BME280;36176;51.506;10.272;2024-01-15T11:09:23;97592.31;;;1.03;100.00
50282;BME280;36176;51.506;10.272;2024-01-15T11:12:06;97592.13;;;1.08;100.00
50282;BME280;36176;51.506;10.272;2024-01-15T11:17:09;97583.19;;;1.14;99.72
50282;BME280;36176;51.506;10.272;2024-01-15T11:19:47;97589.94;;;1.19;99.41
50282;BME280;36176;51.506;10.272;2024-01-15T11:25:02;97587.09;;;1.25;98.30
50282;BME280;36176;51.506;10.272;2024-01-15T11:27:43;97586.97;;;1.28;98.24
50282;BME280;36176;51.506;10.272;2024-01-15T11:30:12;97593.94;;;1.28;97.45
50282;BME280;36176;51.506;10.272;2024-01-15T11:32:40;97599.78;;;1.35;97.71
50282;BME280;36176;51.506;10.272;2024-01-15T11:35:07;97604.00;;;1.37;97.61
50282;BME280;36176;51.506;10.272;2024-01-15T11:40:18;97597.50;;;1.47;98.45
50282;BME280;36176;51.506;10.272;2024-01-15T11:42:46;97597.31;;;1.52;98.41
50282;BME280;36176;51.506;10.272;2024-01-15T11:45:19;97589.50;;;1.52;98.25
50282;BME280;36176;51.506;10.272;2024-01-15T11:48:11;97595.03;;;1.44;97.48
50282;BME280;36176;51.506;10.272;2024-01-15T11:50:45;97601.31;;;1.39;97.16
50282;BME280;36176;51.506;10.272;2024-01-15T11:53:45;97604.81;;;1.39;97.39
50282;BME280;36176;51.506;10.272;2024-01-15T11:56:15;97597.03;;;1.38;97.76
50282;BME280;36176;51.506;10.272;2024-01-15T11:58:43;97598.97;;;1.33;97.63
50282;BME280;36176;51.506;10.272;2024-01-15T12:01:11;97606.25;;;1.24;97.48
50282;BME280;36176;51.506;10.272;2024-01-15T12:03:39;97599.38;;;1.22;97.50
50282;BME280;36176;51.506;10.272;2024-01-15T12:06:07;97595.41;;;1.35;97.73
50282;BME280;36176;51.506;10.272;2024-01-15T12:08:34;97604.91;;;1.36;96.77
50282;BME280;36176;51.506;10.272;2024-01-15T12:11:06;97591.81;;;1.38;95.32
50282;BME280;36176;51.506;10.272;2024-01-15T12:13:37;97592.72;;;1.37;95.36
50282;BME280;36176;51.506;10.272;2024-01-15T12:16:05;97585.66;;;1.39;94.33
50282;BME280;36176;51.506;10.272;2024-01-15T12:18:32;97582.97;;;1.42;95.05
50282;BME280;36176;51.506;10.272;2024-01-15T12:21:00;97585.47;;;1.43;94.63
50282;BME280;36176;51.506;10.272;2024-01-15T12:23:27;97584.41;;;1.49;94.73
50282;BME280;36176;51.506;10.272;2024-01-15T12:25:54;97589.78;;;1.66;95.45
50282;BME280;36176;51.506;10.272;2024-01-15T12:28:21;97584.69;;;1.84;93.61
50282;BME280;36176;51.506;10.272;2024-01-15T12:30:49;97582.72;;;1.89;92.88
50282;BME280;36176;51.506;10.272;2024-01-15T12:33:18;97581.28;;;1.82;93.41
50282;BME280;36176;51.506;10.272;2024-01-15T12:35:45;97583.25;;;1.77;92.87
50282;BME280;36176;51.506;10.272;2024-01-15T12:38:12;97588.16;;;1.64;93.58
50282;BME280;36176;51.506;10.272;2024-01-15T12:40:50;97583.34;;;1.53;94.21
50282;BME280;36176;51.506;10.272;2024-01-15T12:43:17;97590.41;;;1.51;94.73
50282;BME280;36176;51.506;10.272;2024-01-15T12:45:45;97587.03;;;1.49;94.84
50282;BME280;36176;51.506;10.272;2024-01-15T12:48:13;97583.47;;;1.50;94.77
50282;BME280;36176;51.506;10.272;2024-01-15T12:50:42;97580.88;;;1.50;95.04
50282;BME280;36176;51.506;10.272;2024-01-15T12:53:09;97587.13;;;1.46;94.36
50282;BME280;36176;51.506;10.272;2024-01-15T12:55:36;97584.59;;;1.44;95.15
50282;BME280;36176;51.506;10.272;2024-01-15T12:58:04;97598.34;;;1.48;95.24
50282;BME280;36176;51.506;10.272;2024-01-15T13:00:31;97594.84;;;1.49;95.89
50282;BME280;36176;51.506;10.272;2024-01-15T13:02:58;97600.84;;;1.51;96.00
50282;BME280;36176;51.506;10.272;2024-01-15T13:05:26;97596.53;;;1.50;96.14
50282;BME280;36176;51.506;10.272;2024-01-15T13:07:54;97609.75;;;1.45;95.83
50282;BME280;36176;51.506;10.272;2024-01-15T13:10:21;97602.91;;;1.43;96.04
50282;BME280;36176;51.506;10.272;2024-01-15T13:12:52;97599.63;;;1.38;96.22